createdAt,value
2023-04-14T00:01:42.790Z,15.90
2023-04-14T00:06:46.041Z,15.90
2023-04-14T00:11:50.733Z,15.90
2023-04-14T00:16:54.133Z,15.80
2023-04-14T00:21:57.455Z,15.80
2023-04-14T00:27:02.167Z,15.80
2023-04-14T00:32:05.429Z,15.80
2023-04-14T00:37:08.677Z,15.70
2023-04-14T00:42:13.222Z,15.60
2023-04-14T00:47:17.354Z,15.50
2023-04-14T00:52:23.906Z,15.50
2023-04-14T00:57:28.942Z,15.50
2023-04-14T01:02:33.372Z,15.50
2023-04-14T01:07:37.257Z,15.50
2023-04-14T01:13:01.075Z,15.50
2023-04-14T01:18:11.358Z,15.50
2023-04-14T01:23:18.881Z,15.40
2023-04-14T01:28:41.109Z,15.30
2023-04-14T01:33:49.280Z,15.30
2023-04-14T01:38:54.369Z,15.20
2023-04-14T01:44:00.328Z,15.00
2023-04-14T01:49:05.998Z,14.90
2023-04-14T01:54:15.667Z,14.80
2023-04-14T01:59:20.416Z,14.70
2023-04-14T02:04:28.373Z,14.70
2023-04-14T02:09:34.173Z,14.60
2023-04-14T02:14:39.987Z,14.50
2023-04-14T02:19:46.158Z,14.40
2023-04-14T02:24:49.670Z,14.30
2023-04-14T02:29:56.013Z,14.20
2023-04-14T02:35:09.200Z,14.20
2023-04-14T02:40:16.566Z,14.10
2023-04-14T02:45:24.203Z,14.00
2023-04-14T02:50:31.639Z,13.90
2023-04-14T02:55:43.662Z,13.90
2023-04-14T03:00:48.181Z,13.90
2023-04-14T03:05:54.989Z,13.80
2023-04-14T03:10:59.845Z,13.80
2023-04-14T03:16:06.012Z,13.70
2023-04-14T03:21:11.706Z,13.70
2023-04-14T03:26:20.178Z,13.60
2023-04-14T03:31:32.649Z,13.60
2023-04-14T03:36:38.588Z,13.50
2023-04-14T03:41:48.104Z,13.50
2023-04-14T03:46:54.632Z,13.50
2023-04-14T03:52:05.189Z,13.40
2023-04-14T03:57:11.989Z,13.40
2023-04-14T04:02:16.885Z,13.20
2023-04-14T04:07:23.220Z,13.20
2023-04-14T04:12:28.374Z,13.10
2023-04-14T04:17:33.738Z,12.90
2023-04-14T04:22:42.508Z,12.90
2023-04-14T04:27:46.689Z,12.80
2023-04-14T04:32:52.567Z,12.70
2023-04-14T04:38:01.054Z,12.50
2023-04-14T04:43:05.339Z,12.40
2023-04-14T04:48:10.048Z,12.30
2023-04-14T04:53:14.882Z,12.20
2023-04-14T04:58:18.140Z,12.20
2023-04-14T05:03:21.409Z,12.20
2023-04-14T05:08:26.092Z,12.20
2023-04-14T05:13:29.314Z,12.20
2023-04-14T05:18:32.833Z,12.10
2023-04-14T05:23:38.973Z,12.10
2023-04-14T05:28:42.693Z,12.00
2023-04-14T05:33:46.125Z,11.90
2023-04-14T05:38:50.724Z,11.90
2023-04-14T05:43:54.036Z,11.90
2023-04-14T05:48:58.719Z,11.90
2023-04-14T05:54:03.698Z,11.90
2023-04-14T05:59:07.159Z,11.90
2023-04-14T06:04:11.455Z,11.90
2023-04-14T06:09:16.602Z,11.90
2023-04-14T06:14:19.811Z,11.90
2023-04-14T06:19:23.255Z,11.80
2023-04-14T06:24:28.182Z,11.80
2023-04-14T06:29:31.791Z,11.80
2023-04-14T06:34:35.292Z,11.80
2023-04-14T06:39:39.847Z,11.70
2023-04-14T06:44:43.205Z,11.70
2023-04-14T06:49:46.405Z,11.70
2023-04-14T06:54:51.322Z,11.70
2023-04-14T06:59:54.645Z,11.80
2023-04-14T07:04:57.852Z,11.80
2023-04-14T07:10:02.585Z,11.80
2023-04-14T07:15:07.300Z,11.90
2023-04-14T07:20:11.742Z,11.80
2023-04-14T07:25:16.745Z,11.80
2023-04-14T07:30:20.193Z,11.80
2023-04-14T07:35:25.921Z,11.80
2023-04-14T07:40:30.501Z,11.80
2023-04-14T07:45:33.698Z,11.80
2023-04-14T07:50:38.034Z,11.90
2023-04-14T07:55:42.635Z,12.00
2023-04-14T08:00:46.249Z,12.00
2023-04-14T08:05:49.647Z,12.00
2023-04-14T08:10:54.325Z,12.00
2023-04-14T08:15:57.668Z,12.10
2023-04-14T08:21:00.923Z,12.10
2023-04-14T08:26:06.703Z,12.20
2023-04-14T08:31:11.659Z,12.20
2023-04-14T08:36:15.639Z,12.30
2023-04-14T08:41:21.479Z,12.30
2023-04-14T08:46:27.333Z,12.30
2023-04-14T08:51:33.408Z,12.30
2023-04-14T08:56:40.432Z,12.30
2023-04-14T09:01:43.901Z,12.30
2023-04-14T09:06:47.408Z,12.20
2023-04-14T09:11:53.197Z,12.20
2023-04-14T09:16:57.041Z,12.30
2023-04-14T09:22:00.650Z,12.40
2023-04-14T09:27:06.929Z,12.40
2023-04-14T09:32:12.512Z,12.40
2023-04-14T09:37:16.359Z,12.40
2023-04-14T09:42:39.516Z,12.30
2023-04-14T09:47:44.055Z,12.20
2023-04-14T09:52:48.525Z,12.00
2023-04-14T09:57:53.232Z,11.90
2023-04-14T10:02:59.166Z,11.80
2023-04-14T10:08:04.654Z,11.70
2023-04-14T10:13:09.439Z,11.60
2023-04-14T10:18:12.849Z,11.60
2023-04-14T10:23:16.352Z,11.50
2023-04-14T10:28:22.005Z,11.60
2023-04-14T10:33:25.893Z,11.50
2023-04-14T10:38:43.719Z,11.50
2023-04-14T10:43:48.539Z,11.50
2023-04-14T10:48:53.863Z,11.40
2023-04-14T10:53:57.570Z,11.50
2023-04-14T10:59:04.225Z,11.50
2023-04-14T11:04:19.426Z,11.50
2023-04-14T11:09:34.740Z,11.50
2023-04-14T11:14:39.381Z,11.60
2023-04-14T11:19:42.672Z,11.50
2023-04-14T11:24:45.848Z,11.50
2023-04-14T11:29:51.444Z,11.60
2023-04-14T11:34:54.685Z,11.60
2023-04-14T11:39:58.049Z,11.60
2023-04-14T11:45:04.145Z,11.60
2023-04-14T11:50:09.049Z,11.60
2023-04-14T11:55:12.347Z,11.50
2023-04-14T12:00:18.053Z,11.50
2023-04-14T12:05:25.435Z,11.40
2023-04-14T12:10:29.284Z,11.40
2023-04-14T12:15:37.018Z,11.30
2023-04-14T12:20:44.467Z,11.30
2023-04-14T12:25:51.239Z,11.30
2023-04-14T12:30:59.351Z,11.30
2023-04-14T12:36:04.801Z,11.30
2023-04-14T12:41:10.911Z,11.40
2023-04-14T12:46:25.667Z,11.40
2023-04-14T12:51:29.460Z,11.40
2023-04-14T12:56:32.740Z,11.40
2023-04-14T13:01:37.837Z,11.40
2023-04-14T13:06:41.137Z,11.50
2023-04-14T13:11:44.379Z,11.40
2023-04-14T13:16:49.043Z,11.50
2023-04-14T13:21:52.312Z,11.50
2023-04-14T13:26:55.500Z,11.40
2023-04-14T13:32:00.411Z,11.50
2023-04-14T13:37:03.737Z,11.50
2023-04-14T13:42:07.306Z,11.60
2023-04-14T13:47:12.573Z,11.60
2023-04-14T13:52:15.905Z,11.70
2023-04-14T13:57:21.907Z,11.70
2023-04-14T14:02:26.835Z,11.80
2023-04-14T14:07:30.126Z,11.90
2023-04-14T14:12:33.625Z,12.00
2023-04-14T14:17:40.900Z,12.00
2023-04-14T14:22:44.349Z,12.00
2023-04-14T14:27:47.924Z,12.00
2023-04-14T14:32:52.925Z,12.10
2023-04-14T14:37:56.378Z,12.10
2023-04-14T14:42:59.823Z,12.10
2023-04-14T14:48:04.910Z,12.10
2023-04-14T14:53:08.154Z,12.10
2023-04-14T14:58:12.144Z,12.20
2023-04-14T15:03:17.199Z,12.30
2023-04-14T15:08:20.694Z,12.30
2023-04-14T15:13:24.143Z,12.30
2023-04-14T15:18:29.061Z,12.30
2023-04-14T15:23:35.442Z,12.20
2023-04-14T15:28:39.508Z,12.10
2023-04-14T15:33:44.562Z,12.10
2023-04-14T15:38:50.096Z,12.00
2023-04-14T15:43:53.510Z,12.00
2023-04-14T15:48:58.847Z,11.90
2023-04-14T15:54:02.406Z,11.90
2023-04-14T15:59:06.258Z,11.90
2023-04-14T16:04:11.479Z,11.90
2023-04-14T16:09:15.154Z,12.00
2023-04-14T16:14:18.766Z,12.10
2023-04-14T16:19:26.648Z,12.10
2023-04-14T16:24:29.995Z,12.20
2023-04-14T16:29:33.247Z,12.20
2023-04-14T16:34:38.001Z,12.30
2023-04-14T16:39:42.002Z,12.30
2023-04-14T16:44:45.485Z,12.30
2023-04-14T16:49:52.075Z,12.30
2023-04-14T16:54:55.805Z,12.40
2023-04-14T17:00:01.243Z,12.40
2023-04-14T17:05:07.586Z,12.40
2023-04-14T17:10:12.417Z,12.40
2023-04-14T17:15:17.263Z,12.40
2023-04-14T17:20:22.767Z,12.30
2023-04-14T17:25:27.836Z,12.30
2023-04-14T17:30:33.787Z,12.30
2023-04-14T17:35:39.325Z,12.40
2023-04-14T17:40:43.011Z,12.40
2023-04-14T17:45:51.193Z,12.40
2023-04-14T17:50:56.701Z,12.40
2023-04-14T17:56:01.651Z,12.50
2023-04-14T18:01:06.285Z,12.50
2023-04-14T18:06:11.829Z,12.50
2023-04-14T18:11:16.710Z,12.50
2023-04-14T18:16:20.878Z,12.50
2023-04-14T18:21:27.944Z,12.60
2023-04-14T18:26:32.490Z,12.50
2023-04-14T18:31:36.261Z,12.60
2023-04-14T18:36:42.475Z,12.60
2023-04-14T18:41:47.366Z,12.60
2023-04-14T18:46:52.807Z,12.70
2023-04-14T18:51:58.558Z,12.70
2023-04-14T18:57:03.767Z,12.60
2023-04-14T19:02:10.338Z,12.60
2023-04-14T19:07:16.854Z,12.60
2023-04-14T19:12:28.110Z,12.70
2023-04-14T19:17:37.824Z,12.70
2023-04-14T19:22:45.611Z,12.70
2023-04-14T19:27:58.311Z,12.70
2023-04-14T19:33:04.428Z,12.70
2023-04-14T19:38:13.654Z,12.70
2023-04-14T19:43:18.827Z,12.70
2023-04-14T19:48:24.600Z,12.70
2023-04-14T19:53:33.245Z,12.70
2023-04-14T19:58:39.048Z,12.70
2023-04-14T20:04:08.458Z,12.80
2023-04-14T20:09:09.782Z,12.80
2023-04-14T20:14:13.839Z,12.80
2023-04-14T20:19:18.528Z,12.90
2023-04-14T20:24:24.725Z,12.90
2023-04-14T20:29:29.533Z,12.90
2023-04-14T20:34:34.559Z,13.00
2023-04-14T20:39:39.686Z,13.00
2023-04-14T20:44:43.949Z,13.00
2023-04-14T20:49:47.215Z,13.00
2023-04-14T20:54:52.238Z,13.10
2023-04-14T20:59:56.217Z,13.10
2023-04-14T21:04:59.567Z,13.10
2023-04-14T21:10:07.025Z,13.20
2023-04-14T21:15:44.265Z,13.10
2023-04-14T21:20:34.122Z,13.20
2023-04-14T21:25:38.800Z,13.20
2023-04-14T21:30:42.637Z,13.30
2023-04-14T21:35:45.907Z,13.30
2023-04-14T21:40:50.910Z,13.30
2023-04-14T21:45:54.963Z,13.40
2023-04-14T21:50:58.412Z,13.40
2023-04-14T21:56:10.443Z,13.50
2023-04-14T22:01:14.292Z,13.50
2023-04-14T22:06:19.252Z,13.50
2023-04-14T22:11:24.179Z,13.60
2023-04-14T22:16:28.779Z,13.60
2023-04-14T22:21:32.414Z,13.60
2023-04-14T22:26:37.598Z,13.60
2023-04-14T22:31:40.859Z,13.70
2023-04-14T22:36:44.236Z,13.70
2023-04-14T22:41:49.786Z,13.70
2023-04-14T22:46:53.117Z,13.70
2023-04-14T22:51:56.488Z,13.70
2023-04-14T22:57:01.293Z,13.70
2023-04-14T23:02:06.088Z,13.70
2023-04-14T23:07:09.453Z,13.70
2023-04-14T23:12:14.022Z,13.70
2023-04-14T23:17:17.205Z,13.60
2023-04-14T23:22:21.742Z,13.60
2023-04-14T23:27:26.390Z,13.60
2023-04-14T23:32:29.665Z,13.50
2023-04-14T23:37:33.185Z,13.40
2023-04-14T23:42:38.486Z,13.30
2023-04-14T23:47:41.917Z,13.30
2023-04-14T23:52:45.208Z,13.20
